Date,TemperatureHighF,TemperatureAvgF,TemperatureLowF,DewpointHighF,DewpointAvgF,DewpointLowF,HumidityHigh,HumidityAvg,HumidityLow,PressureMaxIn,PressureMinIn,WindSpeedMaxMPH,WindSpeedAvgMPH,GustSpeedMaxMPH,PrecipitationSumIn
2013-1-1,73.6,63.7,54.2,63.6,58.6,52.3,97,84,67,30.21,30.03,17,3,23,0.00
2013-1-2,77.5,66.6,57.9,68.3,62.6,56.5,96,87,70,30.06,29.96,12,3,20,0.01
2013-1-3,76.0,64.9,58.9,69.0,62.6,56.5,98,93,77,30.17,30.02,11,2,20,0.04
2013-1-4,59.7,57.8,54.8,58.6,56.8,53.7,97,96,95,30.27,30.14,8,4,20,0.12
2013-1-5,76.0,63.3,54.6,65.0,58.3,52.3,97,84,68,30.29,30.17,8,4,20,0.00
2013-1-6,80.4,67.9,61.5,70.4,64.2,59.2,98,88,69,30.20,30.04,10,2,20,0.00
2013-1-7,71.0,63.8,57.2,62.3,59.1,52.7,95,85,66,30.22,30.11,10,6,20,0.00
2013-1-8,81.1,70.9,63.2,72.0,67.0,61.4,98,88,70,30.22,30.12,6,2,11,0.00
2013-1-9,81.8,72.6,66.8,74.6,69.6,65.9,98,91,74,30.30,30.18,12,4,18,0.01
2013-1-10,81.0,71.9,65.8,71.4,67.0,64.2,100,86,63,30.30,30.21,12,5,19,0.01
2013-1-11,79.8,70.8,62.3,69.7,65.9,61.1,98,85,65,30.26,30.14,14,5,17,0.01
2013-1-12,83.7,70.6,61.6,69.2,64.9,60.7,98,84,54,30.19,30.08,10,3,15,0.00
2013-1-13,79.7,70.1,60.7,69.6,65.1,59.8,98,85,62,30.16,30.06,10,4,15,0.01
2013-1-14,79.0,69.7,61.3,69.2,65.2,60.4,98,86,67,30.19,30.10,11,4,15,0.01
2013-1-15,80.5,70.6,63.4,70.5,65.9,62.1,98,86,62,30.15,30.04,11,3,15,0.00
2013-1-16,83.3,70.7,61.9,68.0,64.5,60.6,97,82,54,30.10,29.99,7,3,15,0.00
2013-1-17,76.8,65.3,54.4,69.4,61.2,48.3,96,87,73,30.10,29.94,27,12,37,0.01
2013-1-18,65.0,54.8,41.4,61.1,49.0,35.9,94,81,74,30.28,30.09,18,7,34,0.03
2013-1-19,74.8,64.4,56.0,62.5,58.3,52.8,92,81,63,30.28,30.13,12,6,22,0.00
2013-1-20,73.8,64.1,59.8,65.2,59.8,54.6,97,86,72,30.17,30.04,9,4,16,0.01
2013-1-21,74.3,64.7,59.5,65.4,59.4,56.2,92,83,68,30.09,29.98,5,1,10,0.03
2013-1-22,64.5,58.1,49.2,56.5,47.0,40.6,88,67,47,30.27,30.05,10,4,19,0.00
2013-1-23,70.2,55.9,45.8,47.1,42.0,36.6,88,63,32,30.35,30.26,6,3,11,0.00
2013-1-24,72.7,59.4,47.5,57.2,49.9,43.4,92,73,47,30.32,30.21,11,4,18,0.00
2013-1-25,76.8,62.5,52.5,61.6,54.6,48.4,97,78,46,30.30,30.16,10,2,17,0.00
2013-1-26,75.7,61.8,50.7,61.5,54.7,48.9,97,79,53,30.26,30.15,8,2,15,0.01
2013-1-27,78.8,65.7,54.4,63.8,59.4,53.3,98,82,54,30.31,30.21,9,3,17,0.01
2013-1-28,77.0,69.2,63.2,66.1,64.0,61.1,94,84,69,30.33,30.23,12,5,18,0.00
2013-1-29,81.0,70.4,62.7,69.4,65.9,61.8,98,86,61,30.25,30.09,13,6,19,0.00
2013-1-30,79.3,72.0,65.8,67.6,66.1,64.0,95,82,65,30.11,29.87,25,13,34,0.00
2013-1-31,70.7,59.2,49.5,67.3,46.5,31.1,94,65,38,30.22,29.88,21,9,35,0.07
2013-2-1,69.9,55.2,43.6,46.5,36.7,30.0,76,52,25,30.35,30.21,10,4,20,0.00
2013-2-2,72.3,57.3,43.4,53.3,44.1,38.1,85,63,37,30.30,30.13,10,3,17,0.00
2013-2-3,69.7,58.1,45.3,56.8,47.1,37.2,90,68,49,30.18,30.05,15,6,33,0.00
2013-2-4,71.7,56.8,45.1,50.9,44.5,37.1,96,67,35,30.14,30.03,8,2,14,0.00
2013-2-5,76.9,60.4,44.5,59.7,51.3,42.9,96,74,48,30.10,29.98,11,2,15,0.00
2013-2-6,78.2,67.7,58.0,66.6,60.6,54.3,91,79,58,30.11,30.02,9,2,14,0.00
2013-2-7,76.5,71.2,66.7,65.8,63.8,61.1,88,78,64,30.07,29.85,19,10,27,0.00
2013-2-8,79.5,70.0,60.2,65.7,61.7,56.1,92,76,53,30.07,29.86,17,9,24,0.00
2013-2-9,75.3,63.3,54.9,59.9,56.1,52.6,95,79,52,30.20,30.06,10,5,21,0.00
2013-2-10,76.6,66.4,57.7,62.2,58.1,53.8,88,76,57,30.27,30.16,14,7,20,0.00
2013-2-11,78.5,69.0,58.2,66.6,62.4,56.8,96,80,63,30.21,30.06,16,6,21,0.00
2013-2-12,80.9,72.0,62.6,69.0,65.9,61.1,97,82,60,30.09,29.91,15,8,22,0.00
2013-2-13,82.1,72.0,62.5,70.4,67.4,59.2,95,86,64,29.96,29.80,25,13,44,0.36
2013-2-14,66.8,63.4,57.6,62.2,60.0,56.1,96,89,77,30.04,29.90,8,2,15,0.25
2013-2-15,69.8,59.4,53.2,60.6,55.3,52.1,97,87,63,30.08,29.94,9,3,14,0.03
2013-2-16,67.9,57.8,49.3,54.2,48.1,31.1,92,72,46,30.11,29.88,27,10,38,0.00
2013-2-17,55.4,45.7,37.2,32.6,23.4,14.8,70,43,22,30.34,30.11,14,5,32,0.00
2013-2-18,67.3,51.9,36.6,49.2,39.8,28.6,87,65,44,30.37,30.20,12,5,23,0.00
2013-2-19,75.7,62.9,48.2,61.3,54.9,46.2,94,76,53,30.22,30.04,18,7,28,0.00
2013-2-20,78.9,65.7,59.3,67.4,58.4,54.2,93,78,59,30.13,30.00,7,4,14,0.00
2013-2-21,80.0,68.6,57.0,67.2,61.2,53.1,92,78,58,30.11,29.98,9,4,13,0.00
2013-2-22,82.7,72.0,63.5,71.7,67.1,62.3,97,86,59,30.08,29.97,18,6,22,0.00
2013-2-23,83.0,74.6,70.0,70.8,68.9,67.2,95,83,62,30.00,29.85,20,12,25,0.00
2013-2-24,74.3,69.9,65.2,72.1,68.1,63.8,96,94,88,29.96,29.86,12,5,19,0.23
2013-2-25,82.1,70.8,63.6,72.6,66.7,62.7,98,88,56,29.93,29.75,21,4,36,0.18
2013-2-26,76.3,71.8,67.0,71.4,68.5,62.6,95,89,81,29.85,29.73,22,12,31,0.04
2013-2-27,76.2,66.7,57.7,64.3,59.2,51.6,94,78,56,29.96,29.85,13,8,22,0.00
2013-2-28,73.2,62.2,52.4,59.3,53.1,48.2,93,73,47,29.99,29.86,20,9,34,0.00
2013-3-1,65.3,56.6,49.6,52.3,44.8,37.8,85,66,41,29.99,29.90,17,8,26,0.00
2013-3-2,59.2,52.0,45.0,46.3,38.7,33.0,70,61,38,30.02,29.93,26,11,42,0.00
2013-3-3,53.9,45.5,38.7,42.5,34.9,30.5,76,67,53,30.16,29.98,24,10,34,0.00
2013-3-4,66.8,51.1,37.6,41.2,34.5,27.2,85,57,29,30.23,30.11,9,3,21,0.00
2013-3-5,74.9,61.3,47.6,59.1,49.3,39.7,88,67,42,30.18,30.00,19,9,28,0.00
2013-3-6,66.1,59.6,50.1,61.9,45.9,33.4,94,63,34,30.12,29.91,25,15,37,0.00
2013-3-7,69.0,54.4,42.0,51.6,41.6,32.9,90,63,42,30.21,30.11,8,4,19,0.00
2013-3-8,76.0,58.3,44.8,51.3,45.9,34.6,95,69,23,30.22,30.10,8,3,18,0.00
2013-3-9,76.2,61.2,48.5,54.6,50.8,46.3,93,71,42,30.22,30.13,9,4,19,0.00
2013-3-10,76.5,65.2,54.6,59.9,55.9,52.5,94,74,49,30.18,30.07,12,5,22,0.00
2013-3-11,74.6,66.0,55.4,62.6,58.7,53.1,93,78,62,30.12,29.91,18,8,24,0.00
2013-3-12,70.3,66.2,58.2,67.4,62.9,56.2,96,89,80,30.01,29.86,18,12,24,0.18
2013-3-13,75.7,62.0,52.4,56.2,45.3,34.3,94,59,26,30.16,30.01,13,6,26,0.01
2013-3-14,69.3,56.4,46.5,45.9,37.7,30.0,82,52,25,30.26,30.14,9,6,23,0.00
2013-3-15,72.9,57.4,43.5,55.3,42.8,34.1,92,63,30,30.28,30.13,10,3,14,0.00
2013-3-16,78.8,63.5,48.9,58.0,49.7,45.3,93,63,35,30.18,30.02,12,4,14,0.00
2013-3-17,75.1,64.6,51.2,62.6,55.1,45.5,95,72,56,30.14,29.99,14,5,19,0.00
2013-3-18,76.0,70.2,64.7,67.5,64.0,60.0,89,81,70,30.06,29.90,17,9,19,0.00
2013-3-19,87.2,73.2,63.7,67.6,63.7,59.6,96,75,42,30.01,29.87,11,2,13,0.00
2013-3-20,76.2,68.5,60.4,68.9,63.6,57.4,95,85,73,29.96,29.77,24,6,29,0.15
2013-3-21,70.8,60.8,51.2,59.1,46.1,34.8,94,62,31,29.97,29.85,13,6,20,0.01
2013-3-22,76.3,61.2,47.6,62.5,52.4,44.1,94,75,39,30.01,29.89,13,4,16,0.06
2013-3-23,82.3,71.9,63.4,73.8,67.0,61.6,97,86,65,29.99,29.75,24,9,29,0.04
2013-3-24,79.0,71.8,67.6,71.7,68.6,64.2,96,90,77,29.85,29.61,36,12,55,0.01
2013-3-25,71.8,64.6,55.7,53.1,44.8,35.6,73,50,29,30.02,29.80,16,12,27,0.00
2013-3-26,59.9,53.6,46.9,45.6,35.7,26.0,69,51,33,30.22,30.01,24,12,35,0.00
2013-3-27,63.2,51.7,41.8,43.6,36.1,31.6,79,57,33,30.30,30.19,14,6,24,0.00
2013-3-28,73.3,56.2,42.1,46.1,40.7,33.9,92,61,25,30.29,30.17,9,3,16,0.00
2013-3-29,76.3,60.9,47.8,50.6,43.9,36.6,92,59,25,30.33,30.18,7,2,15,0.00
2013-3-30,77.5,63.8,49.7,59.7,52.9,45.4,93,70,41,30.26,30.10,11,4,17,0.00
2013-3-31,79.0,69.7,62.2,63.9,58.5,54.7,83,68,47,30.17,29.98,16,8,24,0.00
2013-4-1,82.1,72.4,64.9,67.5,64.1,59.8,90,76,55,30.03,29.91,20,9,30,0.00
2013-4-2,85.3,72.4,62.9,65.8,61.3,56.2,96,71,41,30.08,29.98,10,5,17,0.00
2013-4-3,82.5,71.1,62.4,68.8,64.5,59.3,95,81,56,30.08,29.95,16,5,22,0.05
2013-4-4,73.3,70.6,68.1,69.7,67.8,64.1,97,91,79,30.01,29.85,23,9,29,0.36
2013-4-5,76.5,68.3,58.6,68.6,63.8,56.0,93,86,64,29.98,29.79,17,8,26,0.07
2013-4-6,77.8,65.3,55.3,62.4,57.5,52.1,94,77,55,30.14,29.98,11,7,20,0.01
2013-4-7,79.5,68.9,59.6,63.3,60.5,57.9,97,77,52,30.16,30.05,10,4,18,0.00
2013-4-8,82.1,70.6,59.9,65.7,62.0,58.6,97,76,52,30.14,30.04,11,3,18,0.00
2013-4-9,83.4,72.0,63.5,69.1,63.3,58.3,97,76,53,30.16,30.07,14,5,24,0.00
2013-4-10,84.8,72.7,61.4,70.6,66.1,59.6,97,81,54,30.13,29.98,12,5,18,0.01
2013-4-11,85.9,77.3,71.6,73.8,71.6,70.0,96,83,62,30.00,29.82,17,11,24,0.00
2013-4-12,82.8,77.4,73.9,74.1,72.6,70.9,95,86,71,29.90,29.79,23,13,31,0.00
2013-4-13,87.7,76.3,68.4,73.6,68.8,61.1,94,79,53,29.98,29.86,8,3,14,0.00
2013-4-14,85.2,74.8,67.5,75.2,69.2,62.9,97,83,67,29.98,29.80,17,5,32,1.22
2013-4-15,90.0,76.5,66.2,75.1,67.1,63.8,93,74,50,30.07,29.90,11,4,19,0.00
2013-4-16,87.7,76.7,69.0,73.2,69.2,64.9,97,79,59,30.15,30.03,11,6,20,0.00
2013-4-17,85.0,74.2,67.6,71.0,67.7,65.7,98,81,56,30.14,30.04,11,4,22,0.01
2013-4-18,88.8,76.3,67.4,72.9,69.2,66.2,97,80,55,30.06,29.94,15,5,19,0.00
2013-4-19,86.6,78.5,73.5,75.8,72.7,70.4,94,83,61,30.01,29.88,21,11,28,0.06
2013-4-20,76.3,69.4,60.8,72.7,64.7,57.2,94,85,72,30.15,29.94,12,4,20,0.01
2013-4-21,79.1,68.8,61.8,73.4,66.2,57.7,98,92,78,30.14,30.00,0,0,0,4.13
2013-4-22,79.7,70.0,65.8,70.5,67.3,63.9,98,92,69,30.07,29.98,12,3,23,0.06
2013-4-23,81.3,71.1,63.7,68.1,63.5,60.4,97,79,50,30.11,30.00,11,5,21,0.00
2013-4-24,86.2,71.5,60.0,68.2,63.0,58.9,97,77,50,30.14,30.05,10,4,16,0.01
2013-4-25,87.3,74.8,63.7,70.2,65.2,61.5,97,74,45,30.20,30.09,10,2,16,0.00
2013-4-26,88.4,76.5,66.5,69.5,66.8,63.8,93,74,49,30.23,30.14,10,4,19,0.00
2013-4-27,83.5,74.4,66.9,70.1,66.8,65.0,96,79,56,30.22,30.10,11,5,22,0.00
2013-4-28,81.8,73.1,65.6,69.0,66.1,64.0,96,80,61,30.13,29.99,13,5,22,0.00
2013-4-29,84.7,74.6,67.2,72.5,67.2,63.9,95,79,56,30.02,29.88,20,6,28,0.49
2013-4-30,89.8,74.7,67.4,72.4,68.9,65.5,97,84,45,30.00,29.90,14,3,21,0.39
2013-5-1,77.7,71.9,68.5,73.4,69.7,67.1,98,93,76,30.01,29.93,9,2,16,0.17
2013-5-2,74.8,70.4,67.2,71.9,69.0,66.0,98,95,86,29.95,29.81,12,2,18,1.61
2013-5-3,81.7,72.7,67.6,72.8,68.8,66.5,98,88,70,29.83,29.66,15,4,30,0.02
2013-5-4,83.8,74.1,68.2,73.6,69.7,67.3,97,87,67,29.78,29.64,15,6,24,0.02
2013-5-5,78.0,70.5,61.9,69.3,58.5,48.0,94,68,40,29.92,29.73,18,12,30,0.01
2013-5-6,77.0,69.9,63.1,63.3,60.2,54.8,88,72,52,29.99,29.88,18,11,26,0.00
2013-5-7,78.0,69.2,60.4,64.9,60.4,55.4,89,74,56,30.04,29.94,21,10,26,0.00
2013-5-8,82.7,72.8,64.1,67.2,63.4,60.8,92,74,52,30.12,30.01,13,8,23,0.00
2013-5-9,86.2,74.1,63.1,67.4,63.8,59.5,96,73,42,30.14,30.06,9,3,16,0.00
2013-5-10,90.2,76.8,66.3,74.0,69.5,64.3,96,80,51,30.13,29.98,13,4,19,0.00
2013-5-11,87.8,77.6,71.2,75.6,71.2,66.6,94,81,62,30.04,29.95,21,7,27,0.03
2013-5-12,87.9,78.6,70.8,74.9,70.8,67.4,97,78,57,30.02,29.92,17,8,29,0.00
2013-5-13,83.1,74.3,65.3,69.4,62.5,-99.9,90,69,43,30.12,29.97,13,5,21,0.00
2013-5-14,85.0,46.3,66.5,60.7,-5.8,-99.9,76,31,33,30.20,30.11,10,3,19,0.00
2013-5-15,83.7,72.6,61.9,65.9,61.0,57.4,95,69,47,30.20,30.08,10,4,19,0.00
2013-5-16,86.0,75.0,65.6,69.9,65.0,62.3,90,72,47,30.13,30.00,10,5,17,0.00
2013-5-17,87.4,76.1,65.7,70.6,66.7,63.1,93,74,48,30.09,30.02,11,4,16,0.00
2013-5-18,93.2,78.7,68.5,74.7,70.5,64.5,96,78,43,30.11,29.99,12,4,16,0.00
2013-5-19,91.0,76.7,70.6,75.7,72.1,68.2,95,86,59,30.08,29.99,23,5,32,1.13
2013-5-20,89.2,76.8,71.2,75.4,71.6,69.5,96,85,56,30.07,29.97,11,3,15,0.65
2013-5-21,82.3,73.3,70.0,74.4,70.9,68.8,97,92,73,30.03,29.93,13,3,16,0.26
2013-5-22,87.5,75.3,68.7,75.6,71.5,67.8,98,89,58,29.96,29.90,13,2,18,0.70
2013-5-23,91.8,78.4,70.6,77.4,72.2,68.7,98,83,54,29.99,29.89,14,4,20,0.01
2013-5-24,92.9,81.6,73.5,76.8,70.7,64.0,95,72,41,30.08,29.95,12,6,20,0.00
2013-5-25,86.5,77.3,69.3,70.0,66.0,60.3,94,69,51,30.18,30.06,11,6,16,0.00
2013-5-26,86.4,73.7,62.5,65.5,61.9,58.9,91,68,42,30.21,30.13,9,4,13,0.00
2013-5-27,85.2,75.3,65.9,67.4,65.0,62.7,92,72,50,30.17,30.09,12,5,17,0.00
2013-5-28,87.1,77.3,68.8,73.8,70.0,65.7,92,79,62,30.14,30.06,13,7,18,0.00
2013-5-29,84.3,76.3,71.2,76.1,72.3,69.4,96,88,69,30.14,30.04,21,6,30,0.35
2013-5-30,85.3,77.8,71.7,75.0,72.1,69.6,97,83,64,30.11,30.03,18,7,24,0.17
2013-5-31,85.5,77.6,71.7,76.3,71.7,68.8,94,83,66,30.10,30.02,15,6,22,0.10
2013-6-1,88.8,79.0,72.5,77.2,73.7,70.7,95,85,66,30.06,29.95,12,5,17,0.03
2013-6-2,93.1,80.0,74.3,79.7,75.3,73.2,97,87,56,30.00,29.85,20,4,24,0.86
2013-6-3,88.8,80.3,74.9,78.6,75.6,73.7,97,86,65,29.99,29.87,19,5,24,0.00
2013-6-4,85.3,78.4,73.7,76.4,73.6,70.3,92,86,69,30.03,29.92,22,6,27,0.00
2013-6-5,84.1,75.8,73.1,77.4,73.0,70.6,97,91,76,30.01,29.90,15,3,24,0.45
2013-6-6,79.8,75.7,72.6,76.8,74.0,71.3,97,94,82,29.91,29.65,26,12,41,2.18
2013-6-7,86.8,79.8,74.3,78.3,74.7,72.7,96,85,70,29.93,29.75,15,10,23,0.00
2013-6-8,90.6,78.1,71.1,78.4,73.9,69.5,97,88,64,30.09,29.93,32,4,49,1.92
2013-6-9,88.0,78.5,70.9,78.2,73.9,70.0,98,87,67,30.10,30.01,16,5,21,0.01
2013-6-10,90.5,80.4,75.0,78.9,75.4,71.0,96,86,62,30.09,30.00,17,5,28,0.07
2013-6-11,92.0,79.8,74.0,79.0,75.3,70.3,96,87,62,30.08,29.99,13,3,18,0.09
2013-6-12,95.6,82.3,72.5,80.0,74.8,70.9,97,80,51,30.07,29.97,19,4,29,0.01
2013-6-13,93.0,83.3,76.4,80.3,76.1,73.2,92,80,59,30.02,29.87,21,6,28,0.00
2013-6-14,90.9,83.4,77.2,77.7,75.6,71.8,93,78,57,29.92,29.82,16,10,21,0.00
2013-6-15,89.5,81.5,78.0,79.2,75.9,72.7,94,83,69,30.06,29.89,9,5,16,0.10
2013-6-16,88.0,80.8,77.2,80.7,76.0,73.4,93,86,71,30.08,30.00,12,5,20,0.65
2013-6-17,88.4,80.6,76.2,80.1,77.1,73.0,96,89,73,30.08,29.95,16,4,27,0.94
2013-6-18,91.1,81.0,72.8,79.7,75.6,71.3,96,85,62,30.06,29.93,24,5,32,0.36
2013-6-19,92.0,82.9,75.2,79.3,76.1,72.8,96,81,56,30.03,29.93,21,6,26,0.00
2013-6-20,93.8,80.8,73.2,80.0,75.2,71.4,96,84,55,30.08,29.99,24,4,28,0.63
2013-6-21,91.8,78.2,72.8,78.8,73.6,71.1,98,87,59,30.10,30.03,26,3,29,0.03
2013-6-22,91.0,80.4,72.3,76.8,73.3,69.4,96,81,53,30.11,30.03,10,3,14,0.01
2013-6-23,89.9,79.7,73.8,78.6,75.0,72.5,96,86,63,30.14,30.05,10,4,15,0.05
2013-6-24,89.2,81.4,74.1,77.8,74.6,72.6,96,81,60,30.18,30.06,9,4,14,0.01
2013-6-25,90.6,81.7,74.2,77.6,74.5,72.0,96,80,60,30.15,30.02,11,4,16,0.00
2013-6-26,93.9,80.9,76.0,79.2,75.2,71.0,95,84,58,30.07,30.00,19,5,26,0.06
2013-6-27,92.0,81.0,73.4,78.7,75.1,71.7,96,83,57,30.03,29.91,24,4,33,0.39
2013-6-28,89.0,80.8,77.1,79.9,75.6,71.8,92,85,67,29.95,29.83,29,8,36,0.01
2013-6-29,87.2,80.6,78.1,78.9,76.4,73.6,94,87,71,29.87,29.78,21,10,22,0.03
2013-6-30,87.3,78.5,75.5,78.7,75.5,73.2,95,91,71,29.88,29.80,31,8,37,0.51
2013-7-1,83.8,77.4,74.9,77.7,74.4,71.6,95,91,77,30.01,29.85,24,11,34,0.51
2013-7-2,82.8,77.1,74.0,78.2,74.4,72.3,96,91,81,30.09,29.96,18,6,22,0.16
2013-7-3,86.9,77.5,73.0,78.7,74.9,71.3,97,92,74,30.12,30.04,17,5,27,0.99
2013-7-4,89.0,78.2,70.8,78.5,74.3,68.4,98,89,65,30.14,30.06,24,6,30,0.95
2013-7-5,88.3,80.3,73.8,78.1,75.0,72.8,97,85,64,30.14,30.05,17,6,26,0.04
2013-7-6,88.9,81.1,73.8,76.7,74.9,72.4,97,82,63,30.11,30.03,15,6,23,0.00
2013-7-7,89.5,82.1,74.2,77.7,74.9,71.7,96,80,57,30.13,30.03,14,5,21,0.00
2013-7-8,91.0,82.2,75.3,77.8,75.2,73.7,96,81,60,30.15,30.07,11,4,19,0.00
2013-7-9,91.4,82.2,73.9,76.7,73.4,70.0,97,77,51,30.15,30.05,10,4,20,0.00
2013-7-10,88.9,80.8,74.6,77.4,74.3,71.9,96,81,61,30.08,29.96,13,4,18,0.09
2013-7-11,89.8,81.3,76.8,77.6,75.4,73.4,94,83,61,30.03,29.91,26,7,36,0.00
2013-7-12,88.3,79.9,76.9,78.2,75.8,73.8,94,87,67,29.94,29.88,15,4,18,0.13
2013-7-13,88.5,79.2,74.9,77.4,74.5,71.9,95,86,65,29.99,29.89,23,5,28,0.00
2013-7-14,88.1,77.8,72.9,77.5,74.3,71.7,97,89,66,30.08,29.96,15,6,20,0.04
2013-7-15,88.0,79.2,71.7,77.0,73.8,70.7,98,85,64,30.11,30.01,10,4,20,0.01
2013-7-16,88.8,77.9,74.6,77.2,74.1,72.5,95,89,64,30.15,30.08,15,4,21,0.61
2013-7-17,90.2,79.5,74.7,77.6,75.0,71.1,97,87,65,30.15,30.06,14,5,24,0.05
2013-7-18,85.2,78.3,73.4,76.5,73.6,71.4,96,86,65,30.11,30.03,22,4,27,0.02
2013-7-19,87.5,77.4,72.2,78.0,74.0,70.4,97,90,70,30.12,30.02,17,5,25,1.82
2013-7-20,92.5,78.6,72.5,80.7,75.1,71.6,98,90,65,30.09,29.99,23,3,29,0.02
2013-7-21,93.8,80.9,76.2,80.4,75.8,71.3,93,85,56,30.11,29.99,26,5,34,0.00
2013-7-22,91.0,79.6,75.7,79.7,75.7,71.2,95,88,67,30.11,30.05,19,6,34,0.77
2013-7-23,84.5,79.6,76.5,78.8,75.9,73.5,96,89,77,30.08,29.93,18,8,24,0.00
2013-7-24,86.9,81.5,77.3,79.4,77.0,73.5,96,87,68,29.98,29.86,23,10,27,0.02
2013-7-25,84.8,80.4,74.8,79.3,77.0,73.3,95,90,78,29.97,29.85,21,8,37,0.28
2013-7-26,94.5,82.0,76.3,79.8,77.1,71.2,97,86,57,29.99,29.92,19,4,22,1.37
2013-7-27,92.3,81.1,74.7,79.8,76.5,73.8,98,87,62,29.98,29.88,16,2,19,0.14
2013-7-28,91.0,79.7,74.0,78.1,75.3,71.9,96,87,61,30.06,29.92,23,4,30,1.36
2013-7-29,94.0,81.0,73.9,79.3,75.9,73.0,98,85,57,30.14,30.01,15,2,20,0.02
2013-7-30,91.8,83.3,76.3,79.3,76.8,74.4,97,82,58,30.17,30.06,11,3,16,0.01
2013-7-31,92.9,81.7,75.5,80.1,76.5,71.9,97,85,62,30.12,29.99,16,3,22,0.36
2013-8-1,91.9,80.4,75.8,78.8,75.6,71.0,96,86,53,30.06,29.94,18,3,23,0.11
2013-8-2,94.0,82.5,75.2,78.8,75.5,72.7,97,81,52,30.02,29.93,8,2,14,0.01
2013-8-3,90.3,81.7,77.7,79.5,76.7,74.4,94,85,64,30.08,29.98,22,7,27,0.30
2013-8-4,89.9,81.7,77.2,80.1,77.8,74.7,96,89,66,30.07,29.96,24,7,33,0.49
2013-8-5,91.8,82.9,77.4,81.5,78.0,73.7,94,86,66,30.00,29.89,14,6,24,0.06
2013-8-6,94.0,82.3,75.1,79.9,76.8,74.1,97,84,61,29.96,29.88,11,2,18,0.00
2013-8-7,90.8,83.2,77.7,79.3,77.2,74.9,96,83,61,29.96,29.89,12,4,18,0.00
2013-8-8,90.7,82.9,77.0,79.8,76.8,75.0,96,83,64,30.03,29.93,19,5,30,0.38
2013-8-9,92.1,81.9,76.2,79.3,76.0,72.5,96,83,58,30.06,29.97,22,5,31,0.01
2013-8-10,93.2,82.8,74.8,80.8,75.8,72.4,95,80,59,30.11,30.02,11,5,17,0.00
2013-8-11,94.2,83.6,76.5,79.8,76.3,72.2,97,80,51,30.14,30.04,10,3,17,0.00
2013-8-12,94.5,84.3,76.2,78.8,75.6,72.4,95,77,54,30.12,29.98,10,3,15,0.00
2013-8-13,96.2,85.8,78.1,79.3,76.0,70.6,93,75,48,30.04,29.90,10,4,13,0.00
2013-8-14,94.8,82.9,76.5,80.2,77.1,71.7,95,84,58,30.00,29.88,17,4,25,0.30
2013-8-15,91.5,82.9,76.4,80.1,76.8,73.5,96,83,59,30.02,29.90,17,4,23,0.00
2013-8-16,91.1,81.9,74.8,78.7,76.7,72.6,96,85,61,30.05,29.94,24,5,31,2.40
2013-8-17,92.0,81.5,75.2,80.2,77.4,74.0,98,88,65,30.08,29.97,23,4,31,0.11
2013-8-18,89.8,82.5,77.2,79.1,76.8,73.3,96,84,67,30.08,29.99,16,5,21,0.00
2013-8-19,89.5,82.2,76.8,79.8,76.5,73.1,97,84,67,30.08,29.95,17,3,27,0.00
2013-8-20,92.8,83.6,76.9,78.8,76.1,72.0,96,79,55,30.08,29.98,12,5,19,0.00
2013-8-21,90.8,81.6,78.0,80.6,76.5,73.5,94,85,66,30.10,30.01,15,5,25,0.04
2013-8-22,87.4,80.5,77.8,79.6,76.8,74.6,96,89,73,30.08,29.97,10,3,15,0.00
2013-8-23,90.8,80.8,77.2,80.5,76.9,74.5,96,89,67,30.01,29.94,10,3,15,0.50
2013-8-24,91.5,79.3,74.0,79.7,75.9,72.7,97,90,64,30.10,29.99,17,2,22,1.25
2013-8-25,86.7,78.9,74.8,78.3,75.4,73.4,98,89,73,30.15,30.06,10,3,15,0.31
2013-8-26,88.8,80.5,75.2,78.6,75.7,73.7,96,86,67,30.13,30.00,14,4,18,0.01
2013-8-27,89.3,80.9,74.1,75.9,72.6,68.5,95,77,56,30.05,29.98,10,4,18,0.00
2013-8-28,90.6,80.8,72.1,74.9,71.3,67.7,96,75,52,30.05,29.96,8,3,12,0.00
2013-8-29,92.8,83.0,75.3,77.3,74.0,68.8,93,76,48,30.02,29.91,10,3,17,0.00
2013-8-30,95.0,83.6,76.4,79.8,76.2,69.7,92,79,47,29.97,29.86,22,4,25,0.11
2013-8-31,91.7,82.0,75.6,79.6,75.8,73.1,95,82,60,29.96,29.85,25,6,32,0.16
2013-9-1,92.1,82.1,76.3,78.7,75.1,73.1,93,80,59,29.99,29.87,28,4,35,0.89
2013-9-2,91.3,81.0,75.4,79.1,75.4,72.2,94,84,61,30.01,29.90,12,4,22,0.24
2013-9-3,90.5,82.1,75.4,79.4,76.4,73.3,95,84,59,30.01,29.90,14,6,18,0.00
2013-9-4,92.8,81.4,74.9,79.2,75.7,72.5,94,84,60,30.08,29.96,19,3,25,0.60
2013-9-5,92.0,82.1,74.7,79.6,76.0,71.9,94,83,62,30.09,29.98,8,3,14,0.00
2013-9-6,92.9,80.6,74.8,79.8,76.6,70.7,97,88,59,30.04,29.94,19,2,27,1.40
2013-9-7,90.0,77.8,73.0,77.9,74.2,70.0,98,90,60,30.05,29.95,11,3,19,0.08
2013-9-8,90.7,81.1,74.0,77.6,74.3,72.5,96,81,58,30.01,29.92,12,4,20,0.01
2013-9-9,91.1,81.4,74.4,75.9,73.3,69.9,94,78,52,30.08,29.97,10,4,18,0.00
2013-9-10,89.7,81.7,75.4,74.9,73.4,68.9,93,77,52,30.14,30.04,13,6,22,0.00
2013-9-11,90.4,82.1,75.8,75.8,74.1,69.9,94,78,57,30.12,30.03,10,5,20,0.00
2013-9-12,87.9,80.1,75.5,77.6,75.1,73.1,97,85,66,30.07,29.93,13,3,18,0.00
2013-9-13,92.8,81.9,74.2,77.8,75.0,72.7,97,81,55,29.95,29.82,15,2,21,0.52
2013-9-14,94.2,83.7,77.4,78.6,76.4,73.9,95,80,55,30.02,29.86,13,2,17,0.00
2013-9-15,90.6,81.6,77.0,78.7,76.1,73.2,95,84,62,30.11,30.01,13,4,16,0.00
2013-9-16,91.1,80.7,73.7,77.4,74.4,71.7,96,82,60,30.12,30.02,12,4,17,0.01
2013-9-17,89.0,80.5,75.2,77.6,74.6,72.1,95,83,63,30.10,30.00,13,5,23,0.03
2013-9-18,86.8,78.0,74.8,77.7,74.4,71.3,96,89,72,30.08,30.01,10,4,18,0.58
2013-9-19,89.2,79.4,73.8,77.2,73.6,70.4,96,83,58,30.09,30.01,11,4,17,0.01
2013-9-20,88.3,79.0,72.0,73.0,70.9,69.5,92,78,56,30.07,29.95,8,4,13,0.00
2013-9-21,89.8,79.8,71.3,75.5,72.1,69.5,95,79,52,29.99,29.80,9,2,12,0.00
2013-9-22,87.8,79.2,75.3,78.3,75.0,73.0,97,88,69,29.90,29.78,31,6,35,0.35
2013-9-23,84.7,76.8,74.3,78.2,74.9,73.1,97,94,76,30.00,29.88,13,3,16,1.44
2013-9-24,83.3,78.5,75.6,77.5,75.7,74.0,96,91,78,30.01,29.87,15,8,18,0.02
2013-9-25,81.6,77.9,75.5,76.0,74.3,71.5,95,89,79,29.89,29.82,21,11,24,0.01
2013-9-30,89.3,81.5,76.2,75.1,72.3,68.6,88,75,54,30.06,29.95,10,4,16,0.00
2013-10-1,87.0,78.6,72.8,75.5,72.2,70.0,94,81,65,30.11,30.02,11,4,19,0.00
2013-10-2,87.3,78.1,71.3,73.5,70.8,68.6,92,79,62,30.11,30.03,8,4,16,0.00
2013-10-3,87.8,78.4,70.4,74.8,71.4,68.3,95,80,61,30.11,30.02,9,4,16,0.00
2013-10-4,91.2,79.8,71.7,75.9,72.1,70.2,96,79,52,30.12,30.03,9,3,16,0.00
2013-10-5,89.0,79.0,71.8,76.1,72.5,70.4,96,82,59,30.10,30.00,10,4,18,0.00
2013-10-6,89.7,78.5,72.9,77.6,73.7,71.7,97,86,63,30.02,29.89,19,3,28,0.01
2013-10-7,83.5,77.6,74.0,77.6,74.5,71.2,95,90,80,29.92,29.79,25,7,36,0.44
2013-10-8,87.2,79.1,75.1,77.8,74.9,71.6,95,87,70,29.98,29.81,13,8,22,0.01
2013-10-9,82.3,74.5,68.8,72.6,69.7,65.7,91,85,70,30.08,29.96,10,6,20,0.00
2013-10-10,86.5,75.0,67.0,71.4,67.6,64.9,94,79,53,30.10,30.00,8,4,14,0.00
2013-10-11,85.5,75.1,66.0,71.1,67.3,64.5,97,78,55,30.09,29.98,9,2,13,0.00
2013-10-12,85.8,76.0,67.6,72.1,66.9,62.4,95,75,47,30.08,30.00,10,2,13,0.00
2013-10-13,86.8,76.5,67.0,69.2,65.3,60.5,93,70,45,30.12,30.02,6,3,12,0.00
2013-10-14,86.8,75.7,69.2,71.5,68.3,65.7,93,79,53,30.08,29.97,10,4,15,0.00
2013-10-15,81.9,73.4,69.5,74.2,70.2,67.3,96,90,74,30.04,29.93,8,4,11,0.00
2013-10-16,87.5,77.1,71.2,74.4,71.5,68.7,97,84,56,30.02,29.93,7,2,9,0.00
2013-10-17,89.8,78.4,70.5,75.1,72.0,69.3,97,82,54,30.02,29.92,5,1,9,0.00
2013-10-18,89.3,79.1,71.4,75.1,72.7,69.9,96,82,56,30.03,29.93,9,3,13,0.01
2013-10-19,86.7,80.0,73.0,76.3,73.9,70.5,94,82,66,30.00,29.90,10,4,13,0.00
2013-10-20,88.5,79.6,75.4,77.2,74.3,71.0,95,85,68,30.01,29.89,10,4,18,0.00
2013-10-21,91.4,79.7,73.3,79.4,74.3,71.4,95,84,63,30.04,29.93,9,3,13,0.00
2013-10-22,87.5,79.5,73.4,77.7,74.4,71.9,96,85,69,29.99,29.84,20,7,26,0.00
2013-10-23,81.5,75.2,68.3,73.0,65.7,55.3,93,74,48,30.05,29.84,14,7,21,0.00
2013-10-24,72.4,66.4,61.6,60.9,56.8,51.1,86,71,63,30.20,30.05,8,4,15,0.00
2013-10-25,80.8,68.8,59.2,60.6,57.9,52.5,92,71,44,30.27,30.19,9,4,14,0.00
2013-10-26,79.8,68.2,59.0,61.6,57.8,54.0,90,71,43,30.25,30.13,6,3,14,0.00
2013-10-27,79.7,67.3,58.3,62.6,57.8,54.3,95,74,43,30.18,30.09,7,3,12,0.01
2013-10-28,84.1,69.9,59.3,68.0,61.8,55.8,94,77,50,30.23,30.14,9,3,15,0.00
2013-10-29,83.9,72.4,62.8,70.0,65.7,61.3,97,81,55,30.26,30.18,12,5,23,0.01
2013-10-30,83.3,73.6,66.3,71.5,67.3,64.5,95,82,61,30.27,30.15,9,4,13,0.00
2013-10-31,82.9,74.9,66.9,71.3,68.7,65.7,97,82,61,30.18,30.02,14,5,18,0.01
2013-11-1,84.8,77.5,70.6,73.4,71.2,67.8,96,82,62,30.05,29.89,21,9,26,0.00
2013-11-2,75.7,70.1,63.2,72.5,67.4,60.8,94,91,85,30.01,29.85,16,6,22,0.26
2013-11-3,76.9,66.4,58.8,61.1,56.2,49.4,95,72,39,30.15,29.99,12,5,20,0.01
2013-11-4,78.5,69.4,63.7,65.6,61.6,57.1,91,77,54,30.21,30.13,15,6,23,0.01
2013-11-5,82.3,73.3,67.0,70.4,67.2,63.6,93,82,63,30.20,30.13,15,8,30,0.02
2013-11-6,82.1,73.1,68.0,71.6,68.1,65.4,94,85,66,30.16,30.07,10,4,18,0.00
2013-11-7,82.0,72.7,67.7,71.9,68.4,65.8,97,87,65,30.09,30.00,6,2,12,0.01
2013-11-8,79.0,69.1,64.5,68.4,64.0,58.3,96,84,69,30.17,30.03,12,6,24,0.00
2013-11-9,80.2,70.7,63.4,67.4,63.2,60.1,92,78,60,30.22,30.14,10,5,20,0.00
2013-11-10,84.0,71.7,63.6,68.7,65.4,61.7,95,82,57,30.21,30.12,9,4,16,0.00
2013-11-11,82.3,72.0,64.9,70.3,66.0,63.4,95,83,60,30.21,30.10,8,4,14,0.01
2013-11-12,79.8,70.9,65.0,70.5,65.8,60.1,97,85,65,30.15,30.04,6,3,14,0.00
2013-11-13,67.8,61.6,54.5,60.6,53.9,50.7,87,76,65,30.35,30.12,16,10,34,0.00
2013-11-14,75.5,63.6,53.8,60.9,55.5,50.2,93,77,49,30.35,30.22,10,5,20,0.00
2013-11-15,76.4,68.3,61.2,67.9,63.3,57.6,93,84,69,30.24,30.12,8,3,10,0.05
2013-11-16,75.2,70.7,67.6,73.4,68.8,65.5,97,94,90,30.18,30.07,8,4,12,0.16
2013-11-17,81.8,74.7,67.9,72.8,70.1,66.3,96,86,69,30.13,30.02,13,4,17,0.00
2013-11-18,82.6,75.3,70.1,74.0,70.7,68.3,95,86,72,30.07,29.95,10,3,17,0.00
2013-11-19,79.6,71.7,65.7,69.7,65.5,60.8,95,82,57,30.02,29.92,11,4,17,0.00
2013-11-20,81.2,72.1,65.6,72.1,68.1,62.8,94,88,72,30.15,30.00,10,4,20,0.00
2013-11-21,77.5,72.5,69.9,72.2,69.9,68.7,96,92,82,30.24,30.14,11,5,21,0.40
2013-11-22,79.2,73.0,69.5,72.1,68.6,66.2,96,87,69,30.24,30.15,9,4,18,0.00
2013-11-23,85.2,73.4,65.5,73.0,67.2,63.9,96,82,59,30.15,30.03,8,2,12,0.00
2013-11-24,70.7,65.6,61.9,66.5,60.2,54.2,95,83,72,30.28,30.06,15,8,30,0.00
2013-11-25,73.8,67.3,62.5,63.3,58.6,53.8,87,74,60,30.30,30.12,12,7,24,0.00
2013-11-26,79.2,73.4,66.5,72.6,69.5,62.8,94,88,78,30.13,29.78,24,10,33,0.05
2013-11-27,74.3,63.3,43.5,72.0,58.7,37.8,94,85,72,30.25,29.73,25,15,46,0.18
2013-11-28,66.3,51.5,38.6,54.8,44.9,33.6,88,79,62,30.39,30.25,9,6,20,0.00
2013-11-29,71.4,60.0,51.8,62.1,54.7,49.3,94,83,69,30.41,30.32,13,7,26,0.00
2013-11-30,76.3,65.5,57.6,66.4,61.1,54.4,95,86,67,30.35,30.23,11,6,23,0.00
2013-12-1,73.8,65.9,62.0,66.6,63.1,60.6,96,91,77,30.23,30.02,7,4,14,0.00
2013-12-2,71.8,64.9,60.1,64.0,60.9,57.0,96,88,68,30.02,29.86,15,4,20,0.00
2013-12-3,76.0,66.5,57.3,65.8,60.9,55.0,95,83,64,30.04,29.92,9,3,14,0.00
2013-12-4,81.8,70.6,63.1,70.7,65.4,60.4,94,84,63,30.13,30.01,8,3,13,0.00
2013-12-5,80.7,71.6,63.1,70.3,66.4,61.6,96,84,64,30.22,30.12,9,3,14,0.01
2013-12-6,80.3,73.2,65.7,71.4,68.7,64.2,96,86,70,30.22,30.13,17,5,22,0.00
2013-12-7,84.5,73.5,65.0,71.2,67.8,63.4,96,83,59,30.28,30.18,7,2,11,0.00
2013-12-8,81.8,72.8,64.4,71.2,67.3,63.2,97,84,61,30.27,30.14,13,4,17,0.01
2013-12-9,81.0,72.7,65.2,71.7,67.8,63.7,96,85,69,30.24,30.13,13,4,18,0.01
2013-12-10,81.5,73.4,64.8,70.9,67.2,62.4,94,82,64,30.23,30.10,16,6,21,0.00
2013-12-11,83.1,70.2,60.3,72.9,64.0,55.8,91,81,66,30.29,30.18,11,4,21,0.00
2013-12-12,70.6,62.1,53.9,62.8,52.2,37.2,94,72,36,30.36,30.23,12,6,22,0.00
2013-12-13,74.3,61.3,50.6,58.9,53.4,46.4,92,76,54,30.32,30.17,9,4,15,0.00
2013-12-14,78.2,70.7,61.7,71.6,66.1,57.0,92,86,75,30.17,29.98,17,8,21,0.00
2013-12-15,72.4,67.8,59.2,70.3,63.7,55.6,95,87,73,30.16,29.91,19,9,22,0.14
2013-12-16,66.7,56.5,48.1,55.7,49.3,44.8,92,78,54,30.28,30.14,9,5,16,0.00
2013-12-17,73.3,58.2,47.7,59.6,51.0,44.5,93,78,57,30.29,30.18,7,4,14,0.00
2013-12-18,71.4,57.5,46.0,51.3,47.4,42.8,94,72,44,30.33,30.23,8,4,16,0.01
2013-12-19,75.8,60.6,47.4,60.4,53.1,44.6,94,78,53,30.33,30.22,8,3,13,0.00
2013-12-20,79.7,66.9,54.4,66.9,60.1,52.9,97,80,60,30.25,30.15,12,4,18,0.00
2013-12-21,82.5,73.3,65.7,72.5,68.7,63.3,96,86,70,30.19,30.07,18,8,25,0.01
2013-12-22,81.6,73.9,68.5,71.7,69.2,67.0,96,86,70,30.19,30.11,21,8,30,0.01
2013-12-23,80.8,73.5,67.1,72.4,69.6,65.3,97,88,72,30.21,30.11,18,6,24,0.00
2013-12-24,72.3,64.2,53.0,70.2,55.4,32.5,95,75,34,30.30,30.12,16,7,24,0.00
2013-12-25,74.6,59.9,48.3,58.8,51.7,42.6,92,75,53,30.29,30.20,10,5,20,0.00
2013-12-26,77.7,63.9,56.8,65.4,59.4,55.4,96,86,62,30.26,30.13,11,5,19,0.00
2013-12-27,71.2,65.0,59.5,66.1,62.0,57.5,94,90,83,30.30,30.20,10,6,20,0.00
2013-12-28,76.2,70.4,65.2,71.0,67.7,63.1,96,91,81,30.26,30.05,16,6,24,0.05
2013-12-29,75.5,71.6,65.7,71.3,69.3,64.2,95,93,84,30.06,29.91,17,9,23,0.37
2013-12-30,69.8,62.6,58.3,64.2,58.9,53.6,95,88,68,30.24,30.02,9,3,15,0.01
2013-12-31,69.3,61.9,58.2,55.8,53.8,50.3,89,76,54,30.35,30.21,8,4,15,0.00
2014-1-1,65.4,61.9,59.0,63.6,59.6,55.2,96,92,84,30.29,30.10,9,5,18,0.03
2014-1-2,78.0,68.2,61.1,71.5,66.1,56.2,97,93,78,30.11,29.85,23,10,30,0.72